Time;durP1;ratioP1;P1;durP2;ratioP2;P2;SDS_P1;SDS_P2;PMS_P1;PMS_P2;Temp;Humidity;BMP_temperature;BMP_pressure;BME280_temperature;BME280_humidity;BME280_pressure;Samples;Min_cycle;Max_cycle;Signal;HPM_P1;HPM_P2
2023/03/28 00:02:29;;;;;;;7.60;2.70;;;24.80;99.90;;;;;;5019892;28;20204;-79
2023/03/28 00:05:01;;;;;;;8.00;2.80;;;24.80;99.90;;;;;;5021509;28;20200;-77
2023/03/28 00:07:32;;;;;;;8.55;2.60;;;24.90;99.90;;;;;;5021494;28;20270;-77
2023/03/28 00:10:04;;;;;;;10.35;2.63;;;24.90;99.90;;;;;;5021108;28;20208;-77
2023/03/28 00:12:35;;;;;;;5.50;2.53;;;24.90;99.90;;;;;;5022740;28;20201;-77
2023/03/28 00:15:09;;;;;;;8.68;2.38;;;24.90;99.90;;;;;;5020924;28;20667;-77
2023/03/28 00:17:41;;;;;;;10.95;2.60;;;24.90;99.90;;;;;;5031578;28;20224;-76
2023/03/28 00:20:14;;;;;;;12.23;2.50;;;24.90;99.90;;;;;;5021534;28;20221;-76
2023/03/28 00:22:45;;;;;;;4.28;2.30;;;25.00;99.90;;;;;;5021992;28;20201;-77
2023/03/28 00:25:20;;;;;;;12.30;3.25;;;25.00;99.90;;;;;;5019987;28;20215;-76
2023/03/28 00:27:51;;;;;;;10.90;2.30;;;25.10;99.90;;;;;;5021740;28;20854;-76
2023/03/28 00:30:24;;;;;;;6.57;2.58;;;25.20;99.90;;;;;;5018858;28;20201;-77
2023/03/28 00:32:57;;;;;;;7.88;2.20;;;25.30;99.90;;;;;;5018298;28;20197;-76
2023/03/28 00:35:28;;;;;;;4.50;2.00;;;25.30;99.90;;;;;;5014386;28;20283;-76
2023/03/28 00:37:59;;;;;;;5.75;2.50;;;25.40;99.90;;;;;;5020480;28;20313;-77
2023/03/28 00:40:32;;;;;;;5.35;2.10;;;25.50;99.90;;;;;;5019902;28;20787;-75
2023/03/28 00:43:03;;;;;;;6.18;2.40;;;25.50;99.90;;;;;;5019445;28;20549;-76
2023/03/28 00:45:37;;;;;;;6.80;2.47;;;25.50;99.90;;;;;;5016759;28;20204;-77
2023/03/28 00:48:14;;;;;;;3.28;2.05;;;25.60;99.90;;;;;;5028677;28;20203;-77
2023/03/28 00:50:48;;;;;;;5.43;2.30;;;25.60;99.90;;;;;;5019550;28;20279;-76
2023/03/28 00:53:22;;;;;;;7.97;2.38;;;25.60;99.90;;;;;;5020900;28;20711;-77
2023/03/28 00:55:58;;;;;;;6.80;2.10;;;25.60;99.90;;;;;;5018555;28;20228;-77
2023/03/28 00:58:32;;;;;;;6.00;2.60;;;25.60;99.90;;;;;;5017087;28;20686;-76
2023/03/28 01:01:06;;;;;;;7.70;2.30;;;25.60;99.90;;;;;;5018852;28;20232;-75
2023/03/28 01:03:40;;;;;;;4.65;1.95;;;25.60;99.90;;;;;;5018831;28;20892;-77
2023/03/28 01:06:15;;;;;;;6.95;1.98;;;25.60;99.90;;;;;;5017731;28;20200;-77
2023/03/28 01:08:47;;;;;;;5.18;1.58;;;25.50;99.90;;;;;;5017469;28;20742;-77
2023/03/28 01:11:19;;;;;;;2.42;1.60;;;25.50;99.90;;;;;;5017852;28;20696;-77
2023/03/28 01:13:53;;;;;;;1.73;1.38;;;25.50;99.90;;;;;;5017212;28;20208;-77
2023/03/28 01:16:29;;;;;;;4.30;1.40;;;25.50;99.90;;;;;;5018931;28;20216;-77
2023/03/28 01:19:01;;;;;;;2.72;1.48;;;25.60;99.90;;;;;;5016113;28;20257;-76
2023/03/28 01:22:16;;;;;;;2.95;1.40;;;25.60;99.90;;;;;;5016255;28;20817;-77
2023/03/28 01:25:21;;;;;;;5.15;1.80;;;25.60;99.90;;;;;;5019038;28;20200;-78
2023/03/28 01:28:01;;;;;;;4.28;1.30;;;25.70;99.90;;;;;;4994066;28;20233;-76
2023/03/28 01:30:53;;;;;;;2.05;1.45;;;25.70;99.90;;;;;;4995863;28;20287;-75
2023/03/28 01:33:52;;;;;;;3.22;1.70;;;25.70;99.90;;;;;;4994113;28;20343;-76
2023/03/28 01:36:58;;;;;;;2.78;1.60;;;25.70;99.90;;;;;;4995187;28;20201;-76
2023/03/28 01:39:44;;;;;;;2.50;1.23;;;25.60;99.90;;;;;;4990357;28;20203;-76
2023/03/28 01:42:22;;;;;;;2.70;1.50;;;25.60;99.90;;;;;;4999382;28;20240;-75
2023/03/28 01:45:08;;;;;;;4.65;1.45;;;25.60;99.90;;;;;;4996055;28;21097;-77
2023/03/28 01:47:42;;;;;;;2.55;1.50;;;25.50;99.90;;;;;;4995515;28;20204;-76
2023/03/28 01:50:19;;;;;;;2.38;1.40;;;25.60;99.90;;;;;;4996508;28;20212;-76
2023/03/28 01:52:58;;;;;;;2.50;1.48;;;25.60;99.90;;;;;;4999368;28;20197;-78
2023/03/28 01:55:37;;;;;;;3.13;1.50;;;25.60;99.90;;;;;;4996766;28;20851;-77
2023/03/28 01:58:14;;;;;;;2.55;1.65;;;25.60;99.90;;;;;;5002350;28;20204;-76
2023/03/28 02:00:53;;;;;;;3.00;1.52;;;25.60;99.90;;;;;;4998705;28;20229;-75
2023/03/28 02:03:28;;;;;;;2.45;1.42;;;25.70;99.90;;;;;;4996102;28;20201;-77
2023/03/28 02:06:00;;;;;;;3.30;1.42;;;25.70;99.90;;;;;;5000683;28;20197;-77
2023/03/28 02:08:35;;;;;;;3.22;1.42;;;25.80;99.90;;;;;;5027087;28;20190;-77
2023/03/28 02:11:10;;;;;;;5.05;1.30;;;25.80;99.90;;;;;;5020684;28;20197;-77
2023/03/28 02:13:45;;;;;;;2.58;1.48;;;25.80;99.90;;;;;;5027335;28;20220;-77
2023/03/28 02:16:18;;;;;;;3.60;1.50;;;25.80;99.90;;;;;;5029464;28;20208;-76
2023/03/28 02:18:54;;;;;;;4.25;1.30;;;25.80;99.90;;;;;;5022802;28;20727;-77
2023/03/28 02:21:30;;;;;;;3.05;1.35;;;25.80;99.90;;;;;;5016281;28;20233;-76
2023/03/28 02:24:02;;;;;;;1.27;1.17;;;25.70;99.90;;;;;;5000298;28;20691;-75
2023/03/28 02:26:36;;;;;;;4.07;1.08;;;25.70;99.90;;;;;;5004013;28;20832;-77
2023/03/28 02:29:07;;;;;;;4.38;1.10;;;25.70;99.90;;;;;;5012170;28;20956;-76
2023/03/28 02:31:39;;;;;;;2.85;1.23;;;25.70;99.90;;;;;;5017072;28;20217;-75
2023/03/28 02:34:11;;;;;;;1.33;1.10;;;25.70;99.90;;;;;;5012494;28;20236;-76
2023/03/28 02:36:53;;;;;;;3.90;1.45;;;25.80;99.90;;;;;;5016881;28;20208;-76
2023/03/28 02:39:38;;;;;;;2.97;1.38;;;25.80;99.90;;;;;;5014507;28;20207;-76
2023/03/28 02:42:42;;;;;;;4.30;1.48;;;25.70;99.90;;;;;;5016945;28;20224;-77
2023/03/28 02:45:40;;;;;;;4.18;1.40;;;25.70;99.90;;;;;;5013364;28;20204;-76
2023/03/28 02:48:23;;;;;;;4.57;1.50;;;25.60;99.90;;;;;;5018863;28;20209;-76
2023/03/28 02:51:07;;;;;;;2.00;1.40;;;25.50;99.90;;;;;;5017667;28;20204;-75
2023/03/28 02:53:47;;;;;;;4.07;1.52;;;25.50;99.90;;;;;;5016783;28;20359;-77
2023/03/28 02:56:22;;;;;;;4.20;1.60;;;25.50;99.90;;;;;;5019404;28;20213;-77
2023/03/28 02:58:59;;;;;;;2.78;1.52;;;25.50;99.90;;;;;;5018780;28;20291;-77
2023/03/28 03:01:30;;;;;;;1.90;1.60;;;25.50;99.90;;;;;;5017991;28;20235;-76
2023/03/28 03:04:01;;;;;;;2.30;1.30;;;25.50;99.90;;;;;;5017529;28;20219;-76
2023/03/28 03:06:33;;;;;;;2.83;1.38;;;25.50;99.90;;;;;;5018444;28;20254;-76
2023/03/28 03:09:07;;;;;;;3.40;1.40;;;25.50;99.90;;;;;;5017029;28;20201;-77
2023/03/28 03:11:38;;;;;;;3.15;1.50;;;25.50;99.90;;;;;;5019067;28;20189;-76
2023/03/28 03:14:11;;;;;;;4.30;1.60;;;25.40;99.90;;;;;;5022732;28;20192;-76
2023/03/28 03:16:42;;;;;;;2.75;1.33;;;25.30;99.90;;;;;;5018298;28;20953;-75
2023/03/28 03:19:13;;;;;;;3.85;1.42;;;25.20;99.90;;;;;;5019323;28;20236;-76
2023/03/28 03:21:44;;;;;;;2.03;1.40;;;25.20;99.90;;;;;;5021982;28;20224;-76
2023/03/28 03:24:15;;;;;;;5.07;1.65;;;25.10;99.90;;;;;;5017935;28;20324;-76
2023/03/28 03:26:46;;;;;;;4.95;1.50;;;25.10;99.90;;;;;;5018632;28;20244;-75
2023/03/28 03:29:20;;;;;;;4.28;1.30;;;25.10;99.90;;;;;;5017916;28;20262;-76
2023/03/28 03:31:51;;;;;;;4.63;1.70;;;25.00;99.90;;;;;;5016568;28;20197;-76
2023/03/28 03:34:23;;;;;;;4.13;1.42;;;25.00;99.90;;;;;;5014305;28;20202;-76
2023/03/28 03:36:54;;;;;;;5.70;1.73;;;25.00;99.90;;;;;;5018051;28;20201;-76
2023/03/28 03:39:26;;;;;;;2.70;1.70;;;25.00;99.90;;;;;;5019837;28;20201;-76
2023/03/28 03:41:57;;;;;;;3.30;1.50;;;24.90;99.90;;;;;;5022102;28;20805;-76
2023/03/28 03:44:30;;;;;;;3.92;1.65;;;24.90;99.90;;;;;;5014440;28;20430;-77
2023/03/28 03:47:01;;;;;;;3.33;1.50;;;24.90;99.90;;;;;;5026435;28;20225;-76
2023/03/28 03:49:36;;;;;;;2.97;1.50;;;24.90;99.90;;;;;;5025444;28;20694;-74
2023/03/28 03:52:07;;;;;;;3.20;1.52;;;24.90;99.90;;;;;;5029068;28;20215;-77
2023/03/28 03:54:38;;;;;;;5.68;1.73;;;24.90;99.90;;;;;;5020439;28;20227;-77
2023/03/28 03:57:09;;;;;;;3.83;1.45;;;24.90;99.90;;;;;;5019388;28;20201;-77
2023/03/28 03:59:42;;;;;;;2.30;1.20;;;24.90;99.90;;;;;;5018582;28;20204;-76
2023/03/28 04:02:13;;;;;;;2.20;1.60;;;24.80;99.90;;;;;;5017093;28;20231;-77
2023/03/28 04:04:44;;;;;;;3.38;1.65;;;24.80;99.90;;;;;;5015693;28;20305;-76
2023/03/28 04:07:15;;;;;;;4.88;1.52;;;24.70;99.90;;;;;;5020576;28;20201;-76
2023/03/28 04:09:46;;;;;;;2.08;1.40;;;24.70;99.90;;;;;;5024449;28;20200;-77
2023/03/28 04:12:17;;;;;;;4.68;1.50;;;24.60;99.90;;;;;;5032576;28;21181;-77
2023/03/28 04:14:51;;;;;;;1.58;1.30;;;24.60;99.90;;;;;;5017099;28;20629;-77
2023/03/28 04:17:22;;;;;;;3.67;1.50;;;24.60;99.90;;;;;;5024151;28;20218;-77
2023/03/28 04:19:54;;;;;;;2.30;1.48;;;24.50;99.90;;;;;;5021494;28;20205;-77
2023/03/28 04:22:28;;;;;;;4.72;1.60;;;24.50;99.90;;;;;;5018661;28;20227;-77
2023/03/28 04:25:00;;;;;;;4.72;1.50;;;24.50;99.90;;;;;;5017764;28;20684;-78
2023/03/28 04:27:31;;;;;;;3.70;1.55;;;24.40;99.90;;;;;;5019367;28;20233;-76
2023/03/28 04:30:04;;;;;;;3.97;1.58;;;24.30;99.90;;;;;;5015139;28;20204;-77
2023/03/28 04:32:36;;;;;;;5.07;1.70;;;24.30;99.90;;;;;;5020429;28;20231;-77
2023/03/28 04:35:08;;;;;;;2.70;1.50;;;24.20;99.90;;;;;;5018458;28;20286;-76
2023/03/28 04:37:39;;;;;;;4.38;1.95;;;24.10;99.90;;;;;;5017471;28;20199;-76
2023/03/28 04:40:15;;;;;;;6.10;1.88;;;24.10;99.90;;;;;;5022363;28;20200;-74
2023/03/28 04:42:46;;;;;;;4.85;1.70;;;24.00;99.90;;;;;;5020522;28;20224;-75
2023/03/28 04:45:19;;;;;;;4.30;1.80;;;23.90;99.90;;;;;;5020460;28;20256;-76
2023/03/28 04:47:50;;;;;;;4.85;1.70;;;23.90;99.90;;;;;;5020175;28;20267;-77
2023/03/28 04:50:24;;;;;;;6.15;1.60;;;23.90;99.90;;;;;;5020844;28;20200;-77
2023/03/28 04:52:56;;;;;;;4.40;1.67;;;23.80;99.90;;;;;;5018045;28;20555;-77
2023/03/28 04:55:27;;;;;;;6.63;1.90;;;23.70;99.90;;;;;;5017353;28;20204;-76
2023/03/28 04:57:58;;;;;;;5.70;1.98;;;23.60;99.90;;;;;;5015487;28;20200;-77
2023/03/28 05:00:31;;;;;;;5.50;1.77;;;23.60;99.90;;;;;;5017027;28;20219;-78
2023/03/28 05:03:03;;;;;;;4.13;1.60;;;23.40;99.90;;;;;;5016140;28;20224;-77
2023/03/28 05:05:34;;;;;;;5.65;1.77;;;23.10;99.90;;;;;;5014383;28;20298;-77
2023/03/28 05:08:05;;;;;;;6.82;1.55;;;23.00;99.90;;;;;;5016745;28;20215;-76
2023/03/28 05:10:36;;;;;;;2.30;1.40;;;22.80;99.90;;;;;;5016863;28;20230;-77
2023/03/28 05:13:08;;;;;;;9.73;2.08;;;22.70;99.90;;;;;;5015101;28;20209;-77
2023/03/28 05:15:41;;;;;;;7.85;1.80;;;22.70;99.90;;;;;;5015356;28;20815;-75
2023/03/28 05:18:14;;;;;;;6.00;1.73;;;22.60;99.90;;;;;;5015061;28;21595;-76
2023/03/28 05:20:45;;;;;;;3.05;1.70;;;22.60;99.90;;;;;;5015492;28;20212;-77
2023/03/28 05:23:17;;;;;;;6.70;1.85;;;22.60;99.90;;;;;;5018230;28;20290;-76
2023/03/28 05:25:52;;;;;;;7.65;2.10;;;22.60;99.90;;;;;;5013444;28;20208;-75
2023/03/28 05:28:23;;;;;;;4.28;1.63;;;22.60;99.90;;;;;;5014658;28;20392;-76
2023/03/28 05:30:56;;;;;;;6.00;1.70;;;22.70;99.90;;;;;;5015555;28;20933;-77
2023/03/28 05:33:28;;;;;;;5.07;1.90;;;22.60;99.90;;;;;;5013496;28;20204;-76
2023/03/28 05:35:59;;;;;;;6.60;1.88;;;22.70;99.90;;;;;;5013664;28;21802;-78
2023/03/28 05:38:32;;;;;;;6.80;1.92;;;22.80;99.90;;;;;;5015174;28;20333;-78
2023/03/28 05:41:03;;;;;;;5.82;1.70;;;22.80;99.90;;;;;;5017934;28;20909;-78
2023/03/28 05:43:34;;;;;;;5.40;1.75;;;22.90;99.90;;;;;;5014888;28;20330;-77
2023/03/28 05:46:07;;;;;;;4.53;1.75;;;22.80;99.90;;;;;;5015283;28;20196;-77
2023/03/28 05:48:38;;;;;;;6.25;1.83;;;22.70;99.90;;;;;;5016825;28;20196;-78
2023/03/28 05:51:10;;;;;;;1.95;1.50;;;22.70;99.90;;;;;;5018516;28;20224;-76
2023/03/28 05:53:41;;;;;;;2.60;1.60;;;22.70;99.90;;;;;;5016042;28;20207;-78
2023/03/28 05:56:12;;;;;;;3.40;1.67;;;22.70;99.90;;;;;;5015111;28;20379;-78
2023/03/28 05:58:44;;;;;;;3.85;1.60;;;22.70;99.90;;;;;;5014781;28;20211;-76
2023/03/28 06:01:18;;;;;;;4.65;1.77;;;22.70;99.90;;;;;;5014872;28;20691;-77
2023/03/28 06:03:49;;;;;;;3.80;1.63;;;22.70;99.90;;;;;;5013350;28;20263;-78
2023/03/28 06:06:20;;;;;;;3.83;1.52;;;22.70;99.90;;;;;;5014913;28;20200;-78
2023/03/28 06:08:51;;;;;;;3.60;1.50;;;22.70;99.90;;;;;;5013802;28;20204;-77
2023/03/28 06:11:22;;;;;;;3.22;1.60;;;22.80;99.90;;;;;;5019731;28;20856;-77
2023/03/28 06:13:53;;;;;;;3.28;1.60;;;22.80;99.90;;;;;;5012903;28;20207;-77
2023/03/28 06:16:27;;;;;;;3.13;1.35;;;22.70;99.90;;;;;;5012078;28;20211;-76
2023/03/28 06:18:58;;;;;;;2.63;1.30;;;22.70;99.90;;;;;;5017157;28;20200;-77
2023/03/28 06:21:30;;;;;;;1.70;1.40;;;22.70;99.90;;;;;;5016111;28;20681;-77
2023/03/28 06:24:03;;;;;;;3.38;1.40;;;22.70;99.90;;;;;;5014250;28;20205;-77
2023/03/28 06:26:34;;;;;;;1.70;1.20;;;22.60;99.90;;;;;;5015209;28;20607;-76
2023/03/28 06:29:06;;;;;;;3.97;1.13;;;22.50;99.90;;;;;;5016767;28;20267;-76
2023/03/28 06:31:39;;;;;;;3.50;1.20;;;22.50;99.90;;;;;;5013334;28;20200;-77
2023/03/28 06:34:10;;;;;;;3.17;1.35;;;22.40;99.90;;;;;;5018278;28;20201;-76
2023/03/28 06:36:41;;;;;;;3.45;1.20;;;22.40;99.90;;;;;;5014570;28;21941;-77
2023/03/28 06:39:13;;;;;;;1.98;1.05;;;22.40;99.90;;;;;;5016970;28;20335;-77
2023/03/28 06:41:44;;;;;;;4.03;1.23;;;22.40;99.90;;;;;;5016043;28;20207;-76
2023/03/28 06:44:15;;;;;;;2.10;0.90;;;22.30;99.90;;;;;;5013253;28;20282;-78
2023/03/28 06:46:48;;;;;;;2.33;1.13;;;22.30;99.90;;;;;;5015986;28;20201;-76
2023/03/28 06:49:19;;;;;;;2.58;1.00;;;22.30;99.90;;;;;;5014175;28;20958;-78
2023/03/28 06:51:51;;;;;;;3.33;1.30;;;22.30;99.90;;;;;;5017103;28;20694;-78
2023/03/28 06:54:23;;;;;;;3.83;1.13;;;22.40;99.90;;;;;;5013249;28;20660;-78
2023/03/28 06:56:54;;;;;;;1.42;0.93;;;22.40;99.90;;;;;;5014371;28;20196;-78
2023/03/28 06:59:25;;;;;;;3.53;1.17;;;22.40;99.90;;;;;;5012828;28;20204;-78
2023/03/28 07:02:00;;;;;;;1.38;0.90;;;22.50;99.90;;;;;;5014066;28;20200;-76
2023/03/28 07:04:31;;;;;;;1.30;0.90;;;22.50;99.90;;;;;;5016296;28;20200;-78
2023/03/28 07:07:02;;;;;;;1.20;1.10;;;22.50;99.90;;;;;;5013400;28;20205;-78
2023/03/28 07:09:35;;;;;;;2.05;1.13;;;22.50;99.90;;;;;;5012814;28;20197;-77
2023/03/28 07:12:06;;;;;;;1.88;1.20;;;22.50;99.90;;;;;;5012082;28;20200;-77
2023/03/28 07:14:39;;;;;;;1.27;1.00;;;22.50;99.90;;;;;;5015217;28;20201;-78
2023/03/28 07:17:12;;;;;;;1.08;0.90;;;22.50;99.90;;;;;;5013558;28;20228;-77
2023/03/28 07:19:44;;;;;;;4.82;1.35;;;22.50;99.90;;;;;;5015952;28;20664;-77
2023/03/28 07:22:15;;;;;;;2.90;1.23;;;22.50;99.90;;;;;;5014305;28;20233;-77
2023/03/28 07:24:46;;;;;;;3.17;1.10;;;22.40;99.90;;;;;;5016318;28;20668;-77
2023/03/28 07:27:18;;;;;;;2.10;1.10;;;22.40;99.90;;;;;;5014823;28;21190;-77
2023/03/28 07:29:49;;;;;;;2.35;0.93;;;22.40;99.90;;;;;;5015036;28;20201;-77
2023/03/28 07:32:22;;;;;;;1.60;0.80;;;22.30;99.90;;;;;;5017603;28;20578;-76
2023/03/28 07:34:53;;;;;;;2.58;1.15;;;22.20;99.90;;;;;;5017972;28;20215;-76
2023/03/28 07:37:24;;;;;;;1.90;1.10;;;22.30;99.90;;;;;;5017082;28;20201;-76
2023/03/28 07:39:56;;;;;;;2.60;1.08;;;22.30;99.90;;;;;;5019905;28;20212;-77
2023/03/28 07:42:27;;;;;;;3.28;1.80;;;22.40;99.90;;;;;;5016304;28;20868;-76
2023/03/28 07:44:58;;;;;;;3.53;1.00;;;22.40;99.90;;;;;;5016969;28;20216;-76
2023/03/28 07:47:31;;;;;;;3.08;1.30;;;22.40;99.90;;;;;;5016316;28;20205;-76
2023/03/28 07:50:02;;;;;;;1.95;1.20;;;22.40;99.90;;;;;;5015477;28;20236;-75
2023/03/28 07:52:33;;;;;;;3.95;1.02;;;22.40;99.90;;;;;;5020840;28;20902;-76
2023/03/28 07:55:05;;;;;;;2.15;1.23;;;22.40;99.90;;;;;;5014381;28;20213;-76
2023/03/28 07:57:36;;;;;;;3.55;1.45;;;22.40;99.90;;;;;;5018841;28;20201;-77
2023/03/28 08:00:11;;;;;;;6.10;1.67;;;22.40;99.90;;;;;;5017545;28;20231;-77
2023/03/28 08:02:44;;;;;;;2.17;1.30;;;22.40;99.90;;;;;;5013934;28;22013;-76
2023/03/28 08:05:16;;;;;;;2.38;1.20;;;22.30;99.90;;;;;;5016253;28;20536;-77
2023/03/28 08:07:47;;;;;;;2.00;1.40;;;22.30;99.90;;;;;;5022610;28;20196;-76
2023/03/28 08:10:18;;;;;;;2.72;1.25;;;22.30;99.90;;;;;;5018091;28;20201;-77
2023/03/28 08:12:52;;;;;;;2.15;1.20;;;22.30;99.90;;;;;;5024571;28;20472;-76
2023/03/28 08:15:23;;;;;;;3.45;1.27;;;22.30;99.90;;;;;;5020278;28;20229;-78
2023/03/28 08:17:56;;;;;;;4.32;1.40;;;22.30;99.90;;;;;;5025577;28;20980;-78
2023/03/28 08:20:27;;;;;;;2.33;1.20;;;22.40;99.90;;;;;;5017972;28;20219;-76
2023/03/28 08:22:58;;;;;;;2.25;1.08;;;22.40;99.90;;;;;;5017713;28;20213;-78
2023/03/28 08:25:29;;;;;;;3.53;1.30;;;22.30;99.90;;;;;;5018130;28;20672;-77
2023/03/28 08:28:02;;;;;;;1.73;1.17;;;22.40;99.90;;;;;;5017873;28;20239;-76
2023/03/28 08:30:33;;;;;;;2.05;1.15;;;22.30;99.90;;;;;;5014602;28;20201;-76
2023/03/28 08:33:06;;;;;;;4.15;1.35;;;22.30;99.90;;;;;;5014487;28;20211;-76
2023/03/28 08:35:39;;;;;;;2.10;1.10;;;22.30;99.90;;;;;;5017483;28;20201;-76
2023/03/28 08:38:11;;;;;;;1.88;1.02;;;22.30;99.90;;;;;;5049179;28;20239;-75
2023/03/28 08:40:46;;;;;;;2.15;1.02;;;22.30;99.90;;;;;;5054332;28;20204;-76
2023/03/28 08:43:41;;;;;;;3.22;1.40;;;22.30;99.90;;;;;;5050514;28;20224;-76
2023/03/28 08:46:17;;;;;;;3.10;1.20;;;22.40;99.90;;;;;;5016645;28;20201;-75
2023/03/28 08:48:53;;;;;;;2.13;0.90;;;22.30;99.90;;;;;;5015560;28;20238;-78
2023/03/28 08:51:28;;;;;;;3.22;1.20;;;22.40;99.90;;;;;;5019962;28;20259;-76
2023/03/28 08:54:09;;;;;;;2.70;0.95;;;22.40;99.90;;;;;;5016060;28;20204;-77
2023/03/28 08:56:44;;;;;;;6.15;1.00;;;22.40;99.90;;;;;;5016084;28;20307;-78
2023/03/28 08:59:17;;;;;;;1.23;1.00;;;22.40;99.90;;;;;;5015646;28;20596;-77
2023/03/28 09:01:49;;;;;;;2.35;0.90;;;22.40;99.90;;;;;;5015225;28;20202;-76
2023/03/28 09:04:29;;;;;;;2.10;1.00;;;22.40;99.90;;;;;;5016007;28;20224;-76
2023/03/28 09:07:08;;;;;;;1.73;1.10;;;22.30;99.90;;;;;;5015313;28;20204;-78
2023/03/28 09:09:47;;;;;;;2.40;1.40;;;22.20;99.90;;;;;;5016996;28;20196;-76
2023/03/28 09:12:33;;;;;;;3.28;1.23;;;22.20;99.90;;;;;;5015562;28;20192;-77
2023/03/28 09:15:25;;;;;;;2.25;1.30;;;22.30;99.90;;;;;;5016146;28;20289;-77
2023/03/28 09:18:14;;;;;;;2.90;1.38;;;22.30;99.90;;;;;;5015423;28;20228;-77
2023/03/28 09:20:53;;;;;;;1.50;1.10;;;22.40;99.90;;;;;;5019417;28;20218;-77
2023/03/28 09:23:43;;;;;;;1.40;0.95;;;22.40;99.90;;;;;;5014816;28;20365;-78
2023/03/28 09:26:19;;;;;;;1.33;1.00;;;22.40;99.90;;;;;;5024108;28;20240;-75
2023/03/28 09:28:57;;;;;;;2.20;1.00;;;22.40;99.90;;;;;;5017150;28;20209;-76
2023/03/28 09:31:33;;;;;;;2.88;0.80;;;22.40;99.90;;;;;;5023286;28;20211;-78
2023/03/28 09:34:10;;;;;;;1.30;0.80;;;22.40;99.90;;;;;;5040941;28;20235;-77
2023/03/28 09:36:46;;;;;;;1.40;0.80;;;22.40;99.90;;;;;;5034576;28;20200;-78
2023/03/28 09:39:25;;;;;;;1.52;1.15;;;22.40;99.90;;;;;;5027589;28;20213;-76
2023/03/28 09:42:04;;;;;;;1.88;1.08;;;22.40;99.90;;;;;;5021853;28;20204;-78
2023/03/28 09:44:43;;;;;;;1.80;1.17;;;22.40;99.90;;;;;;5023448;28;20264;-77
2023/03/28 09:47:15;;;;;;;2.85;1.10;;;22.40;99.90;;;;;;5025768;28;20217;-78
2023/03/28 09:49:46;;;;;;;4.45;1.67;;;22.40;99.90;;;;;;5025264;28;20197;-79
2023/03/28 09:52:24;;;;;;;2.50;1.20;;;22.40;99.90;;;;;;5028095;28;20212;-80
2023/03/28 09:54:55;;;;;;;1.73;1.00;;;22.30;99.90;;;;;;5010222;28;20571;-81
2023/03/28 09:57:54;;;;;;;1.95;1.20;;;22.30;99.90;;;;;;5028062;28;21553;-77
2023/03/28 10:00:25;;;;;;;1.60;1.00;;;22.30;99.90;;;;;;5026820;28;20837;-77
2023/03/28 10:02:56;;;;;;;5.38;1.10;;;22.30;99.90;;;;;;5025444;28;20200;-80
2023/03/28 10:05:39;;;;;;;1.27;0.98;;;22.40;99.90;;;;;;5027052;28;20936;-78
2023/03/28 10:08:26;;;;;;;1.73;1.10;;;22.40;99.90;;;;;;5029436;28;20678;-76
2023/03/28 10:11:05;;;;;;;1.42;1.00;;;22.40;99.90;;;;;;5026433;28;20200;-76
2023/03/28 10:13:42;;;;;;;2.08;1.15;;;22.40;99.90;;;;;;5025411;28;20208;-77
2023/03/28 10:16:16;;;;;;;2.85;1.45;;;22.50;99.90;;;;;;5026198;28;20590;-78
2023/03/28 10:18:57;;;;;;;;;;;;;;;;;;;;;
2023/03/28 10:21:47;;;;;;;2.28;1.30;;;22.40;99.90;;;;;;5046849;28;20271;-79
2023/03/28 10:24:32;;;;;;;2.45;1.08;;;22.40;99.90;;;;;;5030783;28;20309;-77
2023/03/28 10:27:14;;;;;;;1.98;1.30;;;22.30;99.90;;;;;;5028441;28;20243;-77
2023/03/28 10:29:46;;;;;;;3.17;1.40;;;22.30;99.90;;;;;;5026655;28;20198;-75
2023/03/28 10:32:27;;;;;;;2.85;1.42;;;22.30;99.90;;;;;;5024622;28;20211;-76
2023/03/28 10:35:08;;;;;;;1.55;1.30;;;22.30;99.90;;;;;;5028398;28;20685;-78
2023/03/28 10:37:43;;;;;;;1.67;1.30;;;22.20;99.90;;;;;;5031168;28;20204;-75
2023/03/28 10:40:28;;;;;;;2.40;1.35;;;22.20;99.90;;;;;;5025212;28;20215;-78
2023/03/28 10:43:00;;;;;;;1.60;1.20;;;22.20;99.90;;;;;;5027861;28;20211;-78
2023/03/28 10:45:44;;;;;;;2.53;1.20;;;22.10;99.90;;;;;;5023854;28;20652;-77
2023/03/28 10:48:18;;;;;;;2.58;1.40;;;22.20;99.90;;;;;;5029586;28;20200;-78
2023/03/28 10:50:52;;;;;;;2.38;1.13;;;22.10;99.90;;;;;;5026077;28;20193;-78
2023/03/28 10:53:50;;;;;;;1.65;1.20;;;22.20;99.90;;;;;;5018330;28;20201;-78
2023/03/28 10:56:32;;;;;;;1.80;1.33;;;22.20;99.90;;;;;;5025542;28;20223;-78
2023/03/28 10:59:22;;;;;;;2.00;1.15;;;22.20;99.90;;;;;;5019906;28;20233;-77
2023/03/28 11:02:06;;;;;;;2.38;1.15;;;22.20;99.90;;;;;;5026163;28;20210;-77
2023/03/28 11:04:55;;;;;;;2.00;1.27;;;22.20;99.90;;;;;;5022426;28;20216;-78
2023/03/28 11:07:35;;;;;;;3.10;1.30;;;22.10;99.90;;;;;;5030432;28;20197;-78
2023/03/28 11:10:13;;;;;;;1.40;1.17;;;22.20;99.90;;;;;;5032388;28;20201;-78
2023/03/28 11:13:03;;;;;;;1.73;1.10;;;22.20;99.90;;;;;;5034124;28;20563;-76
2023/03/28 11:15:41;;;;;;;2.42;1.00;;;22.20;99.90;;;;;;5031773;28;20204;-76
2023/03/28 11:18:31;;;;;;;2.55;1.05;;;22.20;99.90;;;;;;5026676;28;20252;-76
2023/03/28 11:21:17;;;;;;;1.25;0.90;;;22.20;99.90;;;;;;5012810;28;20192;-77
2023/03/28 11:23:52;;;;;;;2.03;0.93;;;22.20;99.90;;;;;;5025055;28;20224;-76
2023/03/28 11:26:33;;;;;;;1.45;1.10;;;22.10;99.90;;;;;;5026464;28;20235;-78
2023/03/28 11:29:22;;;;;;;1.48;1.10;;;22.10;99.90;;;;;;5023573;28;20307;-77
2023/03/28 11:32:06;;;;;;;1.50;1.10;;;22.10;99.90;;;;;;5007229;28;20668;-77
2023/03/28 11:34:43;;;;;;;1.95;1.00;;;22.10;99.90;;;;;;5022159;28;22003;-77
2023/03/28 11:37:21;;;;;;;1.20;1.10;;;22.10;99.90;;;;;;5018457;28;20203;-74
2023/03/28 11:39:57;;;;;;;1.88;1.10;;;22.10;99.90;;;;;;5023422;28;20568;-76
2023/03/28 11:42:36;;;;;;;0.85;0.80;;;22.10;99.90;;;;;;5018919;28;20574;-77
2023/03/28 11:45:18;;;;;;;1.23;1.00;;;22.00;99.90;;;;;;5018483;28;20243;-77
2023/03/28 11:47:53;;;;;;;1.70;0.80;;;22.00;99.90;;;;;;5014140;28;20287;-76
2023/03/28 11:50:28;;;;;;;1.92;1.00;;;22.00;99.90;;;;;;5018042;28;20585;-77
2023/03/28 11:53:05;;;;;;;1.00;0.80;;;21.90;99.90;;;;;;5019359;28;20589;-78
2023/03/28 11:55:40;;;;;;;1.20;0.70;;;21.90;99.90;;;;;;5016531;28;20250;-76
2023/03/28 11:58:17;;;;;;;1.58;0.90;;;21.90;99.90;;;;;;5016110;28;21529;-77
2023/03/28 12:00:57;;;;;;;1.98;0.90;;;21.90;99.90;;;;;;5017039;28;20200;-78
2023/03/28 12:03:35;;;;;;;2.40;0.80;;;21.80;99.90;;;;;;5019624;28;20204;-77
2023/03/28 12:06:11;;;;;;;1.35;0.90;;;21.90;99.90;;;;;;5017721;28;20627;-77
2023/03/28 12:08:51;;;;;;;2.92;0.77;;;21.90;99.90;;;;;;5025783;28;20228;-77
2023/03/28 12:11:31;;;;;;;1.55;1.10;;;21.90;99.90;;;;;;5021796;28;20644;-76
2023/03/28 12:14:07;;;;;;;2.00;0.90;;;21.80;99.90;;;;;;5020861;28;20200;-78
2023/03/28 12:16:44;;;;;;;2.08;0.88;;;21.80;99.90;;;;;;5019229;28;20209;-78
2023/03/28 12:19:18;;;;;;;1.95;0.98;;;21.80;99.90;;;;;;5020676;28;20196;-77
2023/03/28 12:21:54;;;;;;;1.20;0.77;;;21.80;99.90;;;;;;5025524;28;20232;-76
2023/03/28 12:24:34;;;;;;;2.05;1.02;;;21.80;99.90;;;;;;5020458;28;20353;-76
2023/03/28 12:27:14;;;;;;;1.15;1.05;;;21.80;99.90;;;;;;5014616;28;20314;-77
2023/03/28 12:29:49;;;;;;;1.48;1.02;;;21.90;99.90;;;;;;5023688;28;20204;-78
2023/03/28 12:32:41;;;;;;;3.83;0.98;;;21.90;99.90;;;;;;5018978;28;20193;-76
2023/03/28 12:35:20;;;;;;;1.75;0.90;;;21.90;99.90;;;;;;5018178;28;20206;-75
2023/03/28 12:38:06;;;;;;;2.33;0.93;;;22.00;99.90;;;;;;5020856;28;20217;-74
2023/03/28 12:41:05;;;;;;;0.93;0.80;;;22.00;99.90;;;;;;5016558;28;20224;-76
2023/03/28 12:43:44;;;;;;;3.28;1.42;;;22.00;99.90;;;;;;5020646;28;20292;-77
2023/03/28 12:46:18;;;;;;;2.17;1.00;;;22.00;99.90;;;;;;5017380;28;20834;-76
2023/03/28 12:48:55;;;;;;;1.10;0.88;;;22.00;99.90;;;;;;5020174;28;20227;-76
2023/03/28 12:51:32;;;;;;;0.88;0.88;;;22.00;99.90;;;;;;5021138;28;20201;-76
2023/03/28 12:54:22;;;;;;;0.95;0.85;;;22.00;99.90;;;;;;5015784;28;20549;-77
2023/03/28 12:57:06;;;;;;;1.90;0.98;;;22.00;99.90;;;;;;5017788;28;20211;-76
2023/03/28 12:59:57;;;;;;;2.45;1.02;;;22.00;99.90;;;;;;5018244;28;20837;-76
2023/03/28 13:02:36;;;;;;;3.20;1.00;;;22.10;99.90;;;;;;5015998;28;20223;-76
2023/03/28 13:05:19;;;;;;;2.83;0.82;;;22.00;99.90;;;;;;5017290;28;20770;-76
2023/03/28 13:08:04;;;;;;;2.15;1.00;;;22.00;99.90;;;;;;5016153;28;20260;-77
2023/03/28 13:10:44;;;;;;;2.92;1.10;;;22.00;99.90;;;;;;5013419;28;20574;-76
2023/03/28 13:13:32;;;;;;;2.78;1.00;;;22.00;99.90;;;;;;5015241;28;20215;-76
2023/03/28 13:16:14;;;;;;;1.85;1.02;;;22.00;99.90;;;;;;5015683;28;20861;-76
2023/03/28 13:19:18;;;;;;;1.52;0.90;;;22.00;99.90;;;;;;5016376;28;20708;-76
2023/03/28 13:21:54;;;;;;;1.45;0.85;;;22.00;99.90;;;;;;5019663;28;20668;-75
2023/03/28 13:24:35;;;;;;;2.42;1.00;;;22.00;99.90;;;;;;5013077;28;20231;-76
2023/03/28 13:27:14;;;;;;;2.08;1.10;;;22.00;99.90;;;;;;5017237;28;20740;-77
2023/03/28 13:29:51;;;;;;;1.35;1.00;;;22.00;99.90;;;;;;5013903;28;20200;-77
2023/03/28 13:32:25;;;;;;;3.42;1.10;;;22.00;99.90;;;;;;5016011;28;20204;-77
2023/03/28 13:34:58;;;;;;;1.83;0.93;;;22.00;99.90;;;;;;5017936;28;22974;-76